createdAt,value
2023-05-22T00:00:06.853Z,0.00
2023-05-22T00:01:06.903Z,0.00
2023-05-22T00:02:06.865Z,0.00
2023-05-22T00:03:06.942Z,0.00
2023-05-22T00:04:06.872Z,0.00
2023-05-22T00:05:06.895Z,0.00
2023-05-22T00:06:06.802Z,0.00
2023-05-22T00:07:06.778Z,0.00
2023-05-22T00:08:06.776Z,0.00
2023-05-22T00:09:06.785Z,0.00
2023-05-22T00:10:06.843Z,0.00
2023-05-22T00:11:06.764Z,0.00
2023-05-22T00:12:06.739Z,0.00
2023-05-22T00:13:06.710Z,0.00
2023-05-22T00:14:06.729Z,0.00
2023-05-22T00:15:06.690Z,0.00
2023-05-22T00:16:06.670Z,0.00
2023-05-22T00:17:06.816Z,0.00
2023-05-22T00:18:06.787Z,0.00
2023-05-22T00:19:06.642Z,0.00
2023-05-22T00:20:06.650Z,0.00
2023-05-22T00:21:06.617Z,0.00
2023-05-22T00:22:06.630Z,0.00
2023-05-22T00:23:06.695Z,0.00
2023-05-22T00:24:06.611Z,0.00
2023-05-22T00:25:06.621Z,0.00
2023-05-22T00:26:06.573Z,0.00
2023-05-22T00:27:06.581Z,0.00
2023-05-22T00:28:06.538Z,0.00
2023-05-22T00:29:06.528Z,0.00
2023-05-22T00:30:06.543Z,0.00
2023-05-22T00:31:06.502Z,0.00
2023-05-22T00:32:06.556Z,0.00
2023-05-22T00:33:06.564Z,0.00
2023-05-22T00:34:06.521Z,0.00
2023-05-22T00:35:06.491Z,0.00
2023-05-22T00:36:06.454Z,0.00
2023-05-22T00:37:06.486Z,0.00
2023-05-22T00:38:06.463Z,0.00
2023-05-22T00:39:06.426Z,0.00
2023-05-22T00:40:06.443Z,0.00
2023-05-22T00:41:06.417Z,0.00
2023-05-22T00:42:06.547Z,0.00
2023-05-22T00:43:06.423Z,0.00
2023-05-22T00:44:06.399Z,0.00
2023-05-22T00:45:06.393Z,0.00
2023-05-22T00:46:06.381Z,0.00
2023-05-22T00:47:06.408Z,0.00
2023-05-22T00:48:06.429Z,0.00
2023-05-22T00:49:06.335Z,0.00
2023-05-22T00:50:06.374Z,0.00
2023-05-22T00:51:06.284Z,0.00
2023-05-22T00:52:06.299Z,0.00
2023-05-22T00:53:06.263Z,0.00
2023-05-22T00:54:06.263Z,0.00
2023-05-22T00:55:06.380Z,0.00
2023-05-22T00:56:06.230Z,0.00
2023-05-22T00:57:06.304Z,0.00
2023-05-22T00:58:06.217Z,0.00
2023-05-22T00:59:06.323Z,0.00
2023-05-22T01:00:06.321Z,0.00
2023-05-22T01:01:06.176Z,0.00
2023-05-22T01:02:06.359Z,0.00
2023-05-22T01:03:06.278Z,0.00
2023-05-22T01:04:06.190Z,0.00
2023-05-22T01:05:06.232Z,0.00
2023-05-22T01:06:06.130Z,0.00
2023-05-22T01:07:06.162Z,0.00
2023-05-22T01:08:06.111Z,0.00
2023-05-22T01:09:06.094Z,0.00
2023-05-22T01:10:06.228Z,0.00
2023-05-22T01:11:06.060Z,0.00
2023-05-22T01:12:06.086Z,0.00
2023-05-22T01:13:06.050Z,0.00
2023-05-22T01:14:06.034Z,0.00
2023-05-22T01:15:06.199Z,0.00
2023-05-22T01:16:06.040Z,0.00
2023-05-22T01:17:06.004Z,0.00
2023-05-22T01:18:06.030Z,0.00
2023-05-22T01:19:06.026Z,0.00
2023-05-22T01:20:06.074Z,0.00
2023-05-22T01:21:05.948Z,0.00
2023-05-22T01:22:05.954Z,0.00
2023-05-22T01:23:05.976Z,0.00
2023-05-22T01:24:05.917Z,0.00
2023-05-22T01:25:05.915Z,0.00
2023-05-22T01:26:05.939Z,0.00
2023-05-22T01:27:05.883Z,0.00
2023-05-22T01:28:05.889Z,0.00
2023-05-22T01:29:05.880Z,0.00
2023-05-22T01:30:05.871Z,0.00
2023-05-22T01:31:05.937Z,0.00
2023-05-22T01:32:05.852Z,0.00
2023-05-22T01:33:05.908Z,0.00
2023-05-22T01:34:05.864Z,0.00
2023-05-22T01:35:05.806Z,0.00
2023-05-22T01:36:05.798Z,0.00
2023-05-22T01:37:05.789Z,0.00
2023-05-22T01:38:05.801Z,0.00
2023-05-22T01:39:05.767Z,0.00
2023-05-22T01:40:05.773Z,0.00
2023-05-22T01:41:05.733Z,0.00
2023-05-22T01:42:05.718Z,0.00
2023-05-22T01:43:05.721Z,0.00
2023-05-22T01:44:05.718Z,0.00
2023-05-22T01:45:05.729Z,0.00
2023-05-22T01:46:05.701Z,0.00
2023-05-22T01:47:05.698Z,0.00
2023-05-22T01:48:05.723Z,0.00
2023-05-22T01:49:05.657Z,0.00
2023-05-22T01:50:05.705Z,0.00
2023-05-22T01:51:05.634Z,0.00
2023-05-22T01:52:05.612Z,0.00
2023-05-22T01:53:05.617Z,0.00
2023-05-22T01:54:05.582Z,0.00
2023-05-22T01:55:05.609Z,0.00
2023-05-22T01:56:05.613Z,0.00
2023-05-22T01:57:05.569Z,0.00
2023-05-22T01:58:05.556Z,0.00
2023-05-22T01:59:05.534Z,0.00
2023-05-22T02:00:05.529Z,0.00
2023-05-22T02:01:05.561Z,0.00
2023-05-22T02:02:05.565Z,0.00
2023-05-22T02:03:05.652Z,0.00
2023-05-22T02:04:05.483Z,0.00
2023-05-22T02:05:05.471Z,0.00
2023-05-22T02:06:05.454Z,0.00
2023-05-22T02:07:05.474Z,0.00
2023-05-22T02:08:05.428Z,0.00
2023-05-22T02:09:05.439Z,0.00
2023-05-22T02:10:05.405Z,0.00
2023-05-22T02:11:05.415Z,0.00
2023-05-22T02:12:05.411Z,0.00
2023-05-22T02:13:05.395Z,0.00
2023-05-22T02:14:05.364Z,0.00
2023-05-22T02:15:05.415Z,0.00
2023-05-22T02:16:05.367Z,0.00
2023-05-22T02:17:05.332Z,0.00
2023-05-22T02:18:05.386Z,0.00
2023-05-22T02:19:05.405Z,0.00
2023-05-22T02:20:05.327Z,0.00
2023-05-22T02:21:05.302Z,0.00
2023-05-22T02:22:05.288Z,0.00
2023-05-22T02:23:05.280Z,0.00
2023-05-22T02:24:05.250Z,0.00
2023-05-22T02:25:05.254Z,0.00
2023-05-22T02:26:05.256Z,0.00
2023-05-22T02:27:05.228Z,0.00
2023-05-22T02:28:05.219Z,0.00
2023-05-22T02:29:05.234Z,0.00
2023-05-22T02:30:05.199Z,0.00
2023-05-22T02:31:05.218Z,0.00
2023-05-22T02:32:05.161Z,0.00
2023-05-22T02:33:05.185Z,0.00
2023-05-22T02:34:05.153Z,0.00
2023-05-22T02:35:05.168Z,0.00
2023-05-22T02:36:05.176Z,0.00
2023-05-22T02:37:05.133Z,0.00
2023-05-22T02:38:05.089Z,0.00
2023-05-22T02:39:05.083Z,0.00
2023-05-22T02:40:05.095Z,0.00
2023-05-22T02:41:05.080Z,0.00
2023-05-22T02:42:05.064Z,0.00
2023-05-22T02:43:05.052Z,0.00
2023-05-22T02:44:05.039Z,0.00
2023-05-22T02:45:05.027Z,0.00
2023-05-22T02:46:05.057Z,0.00
2023-05-22T02:47:05.003Z,0.00
2023-05-22T02:48:04.997Z,0.00
2023-05-22T02:49:04.981Z,0.00
2023-05-22T02:50:04.964Z,0.00
2023-05-22T02:51:04.994Z,0.00
2023-05-22T02:52:04.944Z,0.00
2023-05-22T02:53:04.926Z,0.00
2023-05-22T02:54:04.923Z,0.00
2023-05-22T02:55:04.921Z,0.00
2023-05-22T02:56:04.909Z,0.00
2023-05-22T02:57:04.876Z,0.00
2023-05-22T02:58:04.859Z,0.00
2023-05-22T02:59:04.866Z,0.00
2023-05-22T03:00:04.835Z,0.00
2023-05-22T03:01:04.844Z,0.00
2023-05-22T03:02:05.013Z,0.00
2023-05-22T03:03:04.943Z,0.00
2023-05-22T03:04:04.874Z,0.00
2023-05-22T03:05:04.797Z,0.00
2023-05-22T03:06:04.765Z,0.00
2023-05-22T03:07:04.784Z,0.00
2023-05-22T03:08:04.772Z,0.00
2023-05-22T03:09:04.778Z,0.00
2023-05-22T03:10:04.740Z,0.00
2023-05-22T03:11:04.728Z,0.00
2023-05-22T03:12:04.722Z,0.00
2023-05-22T03:13:04.706Z,0.00
2023-05-22T03:14:04.688Z,0.00
2023-05-22T03:15:04.696Z,0.00
2023-05-22T03:16:04.709Z,0.00
2023-05-22T03:17:04.667Z,0.00
2023-05-22T03:18:04.645Z,0.00
2023-05-22T03:19:04.722Z,0.00
2023-05-22T03:20:04.608Z,0.00
2023-05-22T03:21:04.599Z,0.00
2023-05-22T03:22:04.611Z,0.00
2023-05-22T03:23:04.613Z,0.00
2023-05-22T03:24:04.566Z,0.00
2023-05-22T03:25:04.619Z,0.00
2023-05-22T03:26:04.580Z,0.00
2023-05-22T03:27:04.534Z,0.00
2023-05-22T03:28:04.547Z,0.00
2023-05-22T03:29:04.565Z,0.00
2023-05-22T03:30:04.499Z,0.00
2023-05-22T03:31:04.531Z,0.00
2023-05-22T03:32:04.504Z,0.00
2023-05-22T03:33:04.516Z,0.00
2023-05-22T03:34:04.520Z,0.00
2023-05-22T03:35:04.447Z,0.00
2023-05-22T03:36:04.456Z,0.00
2023-05-22T03:37:04.446Z,0.00
2023-05-22T03:38:04.434Z,0.00
2023-05-22T03:39:04.440Z,0.00
2023-05-22T03:40:04.404Z,0.00
2023-05-22T03:41:04.381Z,0.00
2023-05-22T03:42:04.380Z,0.00
2023-05-22T03:43:04.378Z,0.00
2023-05-22T03:44:04.343Z,0.00
2023-05-22T03:45:04.350Z,0.00
2023-05-22T03:46:04.352Z,0.00
2023-05-22T03:47:04.318Z,0.00
2023-05-22T03:48:04.389Z,0.00
2023-05-22T03:49:04.304Z,0.00
2023-05-22T03:50:04.305Z,0.00
2023-05-22T03:51:04.296Z,0.00
2023-05-22T03:52:04.255Z,0.00
2023-05-22T03:53:04.237Z,0.00
2023-05-22T03:54:04.233Z,0.00
2023-05-22T03:55:04.252Z,0.00
2023-05-22T03:56:04.237Z,0.00
2023-05-22T03:57:04.200Z,0.00
2023-05-22T03:58:04.173Z,0.00
2023-05-22T03:59:04.183Z,0.00
2023-05-22T04:00:04.156Z,5.62
2023-05-22T04:01:04.179Z,5.62
2023-05-22T04:02:04.186Z,5.62
2023-05-22T04:03:04.193Z,5.62
2023-05-22T04:04:04.124Z,5.62
2023-05-22T04:05:04.156Z,5.62
2023-05-22T04:06:04.087Z,5.62
2023-05-22T04:07:04.109Z,5.62
2023-05-22T04:08:04.072Z,5.62
2023-05-22T04:09:04.054Z,5.62
2023-05-22T04:10:04.059Z,5.62
2023-05-22T04:11:04.071Z,5.62
2023-05-22T04:12:04.055Z,5.62
2023-05-22T04:13:04.002Z,5.62
2023-05-22T04:14:04.005Z,5.62
2023-05-22T04:15:03.986Z,5.62
2023-05-22T04:16:04.037Z,11.25
2023-05-22T04:17:03.991Z,11.25
2023-05-22T04:18:03.970Z,11.25
2023-05-22T04:19:04.023Z,11.25
2023-05-22T04:20:03.921Z,11.25
2023-05-22T04:21:03.948Z,11.25
2023-05-22T04:22:03.899Z,11.25
2023-05-22T04:23:03.894Z,11.25
2023-05-22T04:24:03.887Z,11.25
2023-05-22T04:25:03.881Z,11.25
2023-05-22T04:26:03.854Z,11.25
2023-05-22T04:27:03.898Z,11.25
2023-05-22T04:28:03.834Z,11.25
2023-05-22T04:29:03.821Z,11.25
2023-05-22T04:30:03.819Z,16.88
2023-05-22T04:31:03.841Z,16.88
2023-05-22T04:32:03.801Z,16.88
2023-05-22T04:33:03.823Z,16.88
2023-05-22T04:34:03.762Z,16.88
2023-05-22T04:35:03.778Z,16.88
2023-05-22T04:36:03.741Z,16.88
2023-05-22T04:37:03.742Z,16.88
2023-05-22T04:38:03.824Z,16.88
2023-05-22T04:39:03.707Z,16.88
2023-05-22T04:40:03.690Z,22.50
2023-05-22T04:41:03.686Z,22.50
2023-05-22T04:42:03.682Z,22.50
2023-05-22T04:43:03.724Z,22.50
2023-05-22T04:44:03.673Z,22.50
2023-05-22T04:45:03.652Z,22.50
2023-05-22T04:46:03.622Z,22.50
2023-05-22T04:47:06.004Z,22.50
2023-05-22T04:48:03.629Z,28.12
2023-05-22T04:49:03.622Z,28.12
2023-05-22T04:50:03.575Z,28.12
2023-05-22T04:51:03.572Z,28.12
2023-05-22T04:52:03.575Z,28.12
2023-05-22T04:53:03.549Z,28.12
2023-05-22T04:54:03.544Z,28.12
2023-05-22T04:55:05.964Z,33.75
2023-05-22T04:56:03.516Z,33.75
2023-05-22T04:57:03.527Z,33.75
2023-05-22T04:58:03.491Z,33.75
2023-05-22T04:59:03.516Z,33.75
2023-05-22T05:00:03.486Z,39.38
2023-05-22T05:01:03.509Z,39.38
2023-05-22T05:02:03.453Z,39.38
2023-05-22T05:03:03.497Z,39.38
2023-05-22T05:04:03.683Z,39.38
2023-05-22T05:05:03.428Z,39.38
2023-05-22T05:06:03.399Z,39.38
2023-05-22T05:07:03.415Z,45.00
2023-05-22T05:08:03.367Z,45.00
2023-05-22T05:09:03.383Z,45.00
2023-05-22T05:10:03.352Z,45.00
2023-05-22T05:11:03.375Z,45.00
2023-05-22T05:12:03.327Z,45.00
2023-05-22T05:13:03.329Z,45.00
2023-05-22T05:14:03.316Z,45.00
2023-05-22T05:15:03.326Z,45.00
2023-05-22T05:16:03.321Z,45.00
2023-05-22T05:17:03.343Z,50.62
2023-05-22T05:18:03.292Z,50.62
2023-05-22T05:19:03.276Z,50.62
2023-05-22T05:20:03.251Z,50.62
2023-05-22T05:21:03.241Z,56.25
2023-05-22T05:22:03.228Z,56.25
2023-05-22T05:23:03.207Z,56.25
2023-05-22T05:24:03.191Z,56.25
2023-05-22T05:25:03.179Z,56.25
2023-05-22T05:26:03.179Z,56.25
2023-05-22T05:27:03.181Z,56.25
2023-05-22T05:28:03.144Z,56.25
2023-05-22T05:29:03.151Z,56.25
2023-05-22T05:30:03.129Z,56.25
2023-05-22T05:31:03.146Z,61.88
2023-05-22T05:32:03.198Z,61.88
2023-05-22T05:33:03.154Z,67.50
2023-05-22T05:34:03.088Z,67.50
2023-05-22T05:35:03.102Z,67.50
2023-05-22T05:36:03.056Z,73.12
2023-05-22T05:37:03.170Z,78.75
2023-05-22T05:38:03.046Z,73.12
2023-05-22T05:39:03.025Z,73.12
2023-05-22T05:40:03.021Z,73.12
2023-05-22T05:41:03.035Z,78.75
2023-05-22T05:42:03.008Z,78.75
2023-05-22T05:43:03.017Z,78.75
2023-05-22T05:44:02.982Z,73.12
2023-05-22T05:45:02.966Z,67.50
2023-05-22T05:46:02.973Z,67.50
2023-05-22T05:47:02.972Z,67.50
2023-05-22T05:48:02.967Z,78.75
2023-05-22T05:49:02.913Z,73.12
2023-05-22T05:50:02.913Z,73.12
2023-05-22T05:51:02.900Z,73.12
2023-05-22T05:52:02.905Z,73.12
2023-05-22T05:53:02.869Z,73.12
2023-05-22T05:54:02.868Z,78.75
2023-05-22T05:55:02.877Z,73.12
2023-05-22T05:56:02.847Z,78.75
2023-05-22T05:57:02.845Z,78.75
2023-05-22T05:58:02.831Z,78.75
2023-05-22T05:59:02.816Z,78.75
2023-05-22T06:00:02.886Z,78.75
2023-05-22T06:01:02.779Z,73.12
2023-05-22T06:02:02.791Z,73.12
2023-05-22T06:03:02.877Z,67.50
2023-05-22T06:04:02.848Z,67.50
2023-05-22T06:05:02.784Z,61.88
2023-05-22T06:06:02.756Z,67.50
2023-05-22T06:07:02.734Z,67.50
2023-05-22T06:08:02.717Z,73.12
2023-05-22T06:09:02.687Z,67.50
2023-05-22T06:10:02.698Z,73.12
2023-05-22T06:11:02.675Z,67.50
2023-05-22T06:12:02.673Z,84.38
2023-05-22T06:13:02.644Z,84.38
2023-05-22T06:14:02.649Z,95.62
2023-05-22T06:15:02.623Z,73.12
2023-05-22T06:16:06.420Z,90.00
2023-05-22T06:17:02.673Z,84.38
2023-05-22T06:18:02.653Z,84.38
2023-05-22T06:19:02.638Z,78.75
2023-05-22T06:20:02.567Z,78.75
2023-05-22T06:21:02.577Z,67.50
2023-05-22T06:22:02.567Z,67.50
2023-05-22T06:23:02.553Z,67.50
2023-05-22T06:24:02.551Z,78.75
2023-05-22T06:25:02.511Z,95.62
2023-05-22T06:26:02.528Z,106.88
2023-05-22T06:27:02.524Z,101.25
2023-05-22T06:28:02.494Z,78.75
2023-05-22T06:29:02.482Z,84.38
2023-05-22T06:30:04.311Z,90.00
2023-05-22T06:31:02.448Z,90.00
2023-05-22T06:32:02.534Z,90.00
2023-05-22T06:33:02.567Z,101.25
2023-05-22T06:34:02.594Z,112.50
2023-05-22T06:35:02.441Z,123.75
2023-05-22T06:36:02.411Z,118.12
2023-05-22T06:37:02.581Z,112.50
2023-05-22T06:38:02.372Z,118.12
2023-05-22T06:39:02.395Z,112.50
2023-05-22T06:40:02.353Z,118.12
2023-05-22T06:41:02.345Z,90.00
2023-05-22T06:42:02.369Z,106.88
2023-05-22T06:43:02.331Z,112.50
2023-05-22T06:44:02.320Z,106.88
2023-05-22T06:45:02.308Z,101.25
2023-05-22T06:46:02.318Z,112.50
2023-05-22T06:47:02.287Z,106.88
2023-05-22T06:48:02.343Z,106.88
2023-05-22T06:49:02.246Z,101.25
2023-05-22T06:50:02.247Z,95.62
2023-05-22T06:51:02.270Z,84.38
2023-05-22T06:52:04.509Z,95.62
2023-05-22T06:53:02.210Z,106.88
2023-05-22T06:54:02.210Z,106.88
2023-05-22T06:55:02.190Z,106.88
2023-05-22T06:56:02.180Z,129.38
2023-05-22T06:57:02.190Z,151.88
2023-05-22T06:58:02.165Z,151.88
2023-05-22T06:59:02.139Z,146.25
2023-05-22T07:00:02.167Z,135.00
2023-05-22T07:01:02.244Z,129.38
2023-05-22T07:02:02.137Z,140.62
2023-05-22T07:03:02.154Z,196.88
2023-05-22T07:04:02.093Z,236.25
2023-05-22T07:05:02.095Z,196.88
2023-05-22T07:06:02.226Z,247.50
2023-05-22T07:07:02.178Z,146.25
2023-05-22T07:08:02.036Z,123.75
2023-05-22T07:09:02.031Z,151.88
2023-05-22T07:10:02.061Z,163.12
2023-05-22T07:11:02.028Z,146.25
2023-05-22T07:12:02.012Z,140.62
2023-05-22T07:13:01.985Z,123.75
2023-05-22T07:14:01.983Z,118.12
2023-05-22T07:15:01.991Z,140.62
2023-05-22T07:16:01.992Z,213.75
2023-05-22T07:17:01.949Z,360.00
2023-05-22T07:18:02.053Z,303.75
2023-05-22T07:19:01.949Z,326.25
2023-05-22T07:20:01.901Z,208.12
2023-05-22T07:21:01.896Z,258.75
2023-05-22T07:22:01.926Z,348.75
2023-05-22T07:23:02.096Z,421.88
2023-05-22T07:24:01.855Z,376.88
2023-05-22T07:25:01.857Z,191.25
2023-05-22T07:26:01.836Z,174.38
2023-05-22T07:27:01.834Z,219.38
2023-05-22T07:28:01.837Z,382.50
2023-05-22T07:29:01.798Z,225.00
2023-05-22T07:30:01.789Z,202.50
2023-05-22T07:31:01.789Z,315.00
2023-05-22T07:32:01.859Z,230.62
2023-05-22T07:33:01.809Z,213.75
2023-05-22T07:34:01.764Z,196.88
2023-05-22T07:35:01.730Z,213.75
2023-05-22T07:36:01.727Z,253.12
2023-05-22T07:37:01.729Z,236.25
2023-05-22T07:38:01.731Z,219.38
2023-05-22T07:39:01.725Z,270.00
2023-05-22T07:40:01.697Z,230.62
2023-05-22T07:41:01.680Z,264.38
2023-05-22T07:42:02.116Z,393.75
2023-05-22T07:43:01.669Z,388.12
2023-05-22T07:44:01.652Z,247.50
2023-05-22T07:45:01.618Z,191.25
2023-05-22T07:46:01.671Z,157.50
2023-05-22T07:47:01.609Z,118.12
2023-05-22T07:48:01.635Z,106.88
2023-05-22T07:49:01.587Z,90.00
2023-05-22T07:50:01.570Z,90.00
2023-05-22T07:51:01.559Z,95.62
2023-05-22T07:52:01.589Z,95.62
2023-05-22T07:53:01.537Z,95.62
2023-05-22T07:54:01.595Z,112.50
2023-05-22T07:55:01.541Z,123.75
2023-05-22T07:56:01.497Z,135.00
2023-05-22T07:57:01.532Z,146.25
2023-05-22T07:58:01.476Z,180.00
2023-05-22T07:59:01.466Z,191.25
2023-05-22T08:00:01.456Z,174.38
2023-05-22T08:01:01.449Z,196.88
2023-05-22T08:02:01.489Z,196.88
2023-05-22T08:03:01.553Z,146.25
2023-05-22T08:04:01.571Z,135.00
2023-05-22T08:05:01.464Z,135.00
2023-05-22T08:06:01.412Z,135.00
2023-05-22T08:07:01.385Z,151.88
2023-05-22T08:08:01.392Z,146.25
2023-05-22T08:09:01.349Z,135.00
2023-05-22T08:10:01.375Z,146.25
2023-05-22T08:11:04.248Z,140.62
2023-05-22T08:12:01.338Z,123.75
2023-05-22T08:13:01.359Z,135.00
2023-05-22T08:14:01.303Z,151.88
2023-05-22T08:15:01.320Z,123.75
2023-05-22T08:16:01.637Z,112.50
2023-05-22T08:17:01.301Z,101.25
2023-05-22T08:18:01.327Z,101.25
2023-05-22T08:19:01.407Z,112.50
2023-05-22T08:20:01.361Z,112.50
2023-05-22T08:21:01.215Z,101.25
2023-05-22T08:22:01.207Z,101.25
2023-05-22T08:23:01.201Z,106.88
2023-05-22T08:24:01.219Z,106.88
2023-05-22T08:25:01.184Z,112.50
2023-05-22T08:26:01.166Z,106.88
2023-05-22T08:27:04.183Z,106.88
2023-05-22T08:28:01.150Z,106.88
2023-05-22T08:29:01.133Z,106.88
2023-05-22T08:30:01.161Z,106.88
2023-05-22T08:31:01.155Z,118.12
2023-05-22T08:32:01.240Z,118.12
2023-05-22T08:33:01.228Z,129.38
2023-05-22T08:34:01.088Z,140.62
2023-05-22T08:35:01.058Z,180.00
2023-05-22T08:36:01.082Z,168.75
2023-05-22T08:37:01.094Z,140.62
2023-05-22T08:38:01.057Z,123.75
2023-05-22T08:39:01.030Z,129.38
2023-05-22T08:40:01.028Z,135.00
2023-05-22T08:41:00.992Z,146.25
2023-05-22T08:42:00.999Z,146.25
2023-05-22T08:43:01.001Z,123.75
2023-05-22T08:44:00.973Z,118.12
2023-05-22T08:45:00.979Z,123.75
2023-05-22T08:46:00.947Z,135.00
2023-05-22T08:47:00.996Z,140.62
2023-05-22T08:48:00.948Z,135.00
2023-05-22T08:49:00.910Z,118.12
2023-05-22T08:50:00.915Z,112.50
2023-05-22T08:51:00.888Z,106.88
2023-05-22T08:52:00.915Z,135.00
2023-05-22T08:53:00.877Z,118.12
2023-05-22T08:54:00.858Z,90.00
2023-05-22T08:55:00.856Z,112.50
2023-05-22T08:56:00.839Z,129.38
2023-05-22T08:57:00.856Z,112.50
2023-05-22T08:58:00.826Z,84.38
2023-05-22T08:59:00.859Z,101.25
2023-05-22T09:00:00.809Z,123.75
2023-05-22T09:01:00.832Z,146.25
2023-05-22T09:02:00.796Z,112.50
2023-05-22T09:03:00.966Z,112.50
2023-05-22T09:04:00.846Z,101.25
2023-05-22T09:05:00.750Z,90.00
2023-05-22T09:06:00.743Z,106.88
2023-05-22T09:07:00.728Z,90.00
2023-05-22T09:08:16.235Z,90.00
2023-05-22T09:09:01.728Z,101.25
2023-05-22T09:10:00.692Z,95.62
2023-05-22T09:11:00.683Z,112.50
2023-05-22T09:12:00.663Z,118.12
2023-05-22T09:13:00.650Z,106.88
2023-05-22T09:14:00.654Z,101.25
2023-05-22T09:15:00.680Z,101.25
2023-05-22T09:16:00.679Z,90.00
2023-05-22T09:17:00.643Z,101.25
2023-05-22T09:18:00.651Z,106.88
2023-05-22T09:19:00.652Z,118.12
2023-05-22T09:20:00.595Z,112.50
2023-05-22T09:21:00.623Z,129.38
2023-05-22T09:22:00.574Z,135.00
2023-05-22T09:23:00.570Z,135.00
2023-05-22T09:24:00.561Z,146.25
2023-05-22T09:25:00.554Z,140.62
2023-05-22T09:26:00.548Z,168.75
2023-05-22T09:27:00.522Z,180.00
2023-05-22T09:28:00.497Z,196.88
2023-05-22T09:29:00.578Z,196.88
2023-05-22T09:30:00.484Z,174.38
2023-05-22T09:31:03.232Z,140.62
2023-05-22T09:32:00.456Z,174.38
2023-05-22T09:33:00.511Z,174.38
2023-05-22T09:34:00.439Z,208.12
2023-05-22T09:35:00.408Z,174.38
2023-05-22T09:36:00.405Z,140.62
2023-05-22T09:37:00.420Z,112.50
2023-05-22T09:38:00.406Z,95.62
2023-05-22T09:39:00.396Z,112.50
2023-05-22T09:40:00.363Z,112.50
2023-05-22T09:41:00.338Z,95.62
2023-05-22T09:42:00.377Z,95.62
2023-05-22T09:43:00.334Z,101.25
2023-05-22T09:44:01.932Z,112.50
2023-05-22T09:45:00.323Z,106.88
2023-05-22T09:46:00.388Z,123.75
2023-05-22T09:47:00.469Z,146.25
2023-05-22T09:48:00.416Z,135.00
2023-05-22T09:49:00.270Z,129.38
2023-05-22T09:50:00.258Z,135.00
2023-05-22T09:51:00.307Z,135.00
2023-05-22T09:52:00.229Z,123.75
2023-05-22T09:53:00.234Z,118.12
2023-05-22T09:54:00.213Z,112.50
2023-05-22T09:55:00.240Z,106.88
2023-05-22T09:56:00.412Z,123.75
2023-05-22T09:57:00.164Z,112.50
2023-05-22T09:58:00.189Z,118.12
2023-05-22T09:59:00.182Z,123.75
2023-05-22T10:00:00.203Z,140.62
2023-05-22T10:01:00.175Z,146.25
2023-05-22T10:02:00.205Z,118.12
2023-05-22T10:03:00.190Z,106.88
2023-05-22T10:04:00.167Z,123.75
2023-05-22T10:05:00.165Z,118.12
2023-05-22T10:06:00.090Z,118.12
2023-05-22T10:07:00.071Z,118.12
2023-05-22T10:08:00.061Z,106.88
2023-05-22T10:09:00.052Z,106.88
2023-05-22T10:10:00.046Z,118.12
2023-05-22T10:11:00.060Z,118.12
2023-05-22T10:12:00.041Z,135.00
2023-05-22T10:12:59.995Z,123.75
2023-05-22T10:13:59.996Z,118.12
2023-05-22T10:14:59.983Z,129.38
2023-05-22T10:16:00.140Z,112.50
2023-05-22T10:16:59.978Z,95.62
2023-05-22T10:18:00.033Z,101.25
2023-05-22T10:19:00.102Z,118.12
2023-05-22T10:19:59.933Z,112.50
2023-05-22T10:20:59.901Z,106.88
2023-05-22T10:21:59.927Z,101.25
2023-05-22T10:22:59.920Z,101.25
2023-05-22T10:23:59.869Z,123.75
2023-05-22T10:24:59.890Z,202.50
2023-05-22T10:25:59.873Z,146.25
2023-05-22T10:26:59.873Z,298.12
2023-05-22T10:27:59.841Z,129.38
2023-05-22T10:28:59.821Z,129.38
2023-05-22T10:29:59.799Z,146.25
2023-05-22T10:30:59.818Z,135.00
2023-05-22T10:31:59.827Z,112.50
2023-05-22T10:32:59.851Z,123.75
2023-05-22T10:33:59.828Z,146.25
2023-05-22T10:34:59.872Z,140.62
2023-05-22T10:35:59.739Z,146.25
2023-05-22T10:37:13.230Z,135.00
2023-05-22T10:38:00.724Z,123.75
2023-05-22T10:38:59.725Z,123.75
2023-05-22T10:39:59.691Z,129.38
2023-05-22T10:40:59.684Z,123.75
2023-05-22T10:41:59.697Z,112.50
2023-05-22T10:42:59.682Z,112.50
2023-05-22T10:43:59.664Z,146.25
2023-05-22T10:44:59.646Z,146.25
2023-05-22T10:45:59.661Z,129.38
2023-05-22T10:46:59.723Z,129.38
2023-05-22T10:47:59.680Z,135.00
2023-05-22T10:48:59.612Z,185.62
2023-05-22T10:49:59.583Z,163.12
2023-05-22T10:51:00.043Z,146.25
2023-05-22T10:51:59.626Z,118.12
2023-05-22T10:52:59.565Z,106.88
2023-05-22T10:53:59.554Z,112.50
2023-05-22T10:54:59.534Z,151.88
2023-05-22T10:55:59.540Z,112.50
2023-05-22T10:56:59.554Z,213.75
2023-05-22T10:57:59.529Z,157.50
2023-05-22T10:58:59.505Z,118.12
2023-05-22T10:59:59.485Z,163.12
2023-05-22T11:00:59.500Z,140.62
2023-05-22T11:01:59.548Z,151.88
2023-05-22T11:03:09.944Z,151.88
2023-05-22T11:04:00.443Z,140.62
2023-05-22T11:04:59.445Z,135.00
2023-05-22T11:05:59.406Z,129.38
2023-05-22T11:06:59.549Z,123.75
2023-05-22T11:07:59.394Z,180.00
2023-05-22T11:08:59.404Z,225.00
2023-05-22T11:09:59.386Z,174.38
2023-05-22T11:10:59.461Z,129.38
2023-05-22T11:11:59.397Z,151.88
2023-05-22T11:12:59.345Z,180.00
2023-05-22T11:13:59.336Z,180.00
2023-05-22T11:14:59.359Z,146.25
2023-05-22T11:15:59.310Z,146.25
2023-05-22T11:16:59.348Z,157.50
2023-05-22T11:17:59.386Z,168.75
2023-05-22T11:19:00.673Z,163.12
2023-05-22T11:20:00.456Z,157.50
2023-05-22T11:20:59.247Z,168.75
2023-05-22T11:21:59.537Z,163.12
2023-05-22T11:22:59.372Z,185.62
2023-05-22T11:23:59.214Z,180.00
2023-05-22T11:24:59.202Z,151.88
2023-05-22T11:25:59.227Z,151.88
2023-05-22T11:26:59.262Z,196.88
2023-05-22T11:27:59.217Z,202.50
2023-05-22T11:28:59.169Z,163.12
2023-05-22T11:29:59.164Z,185.62
2023-05-22T11:30:59.253Z,191.25
2023-05-22T11:31:59.154Z,225.00
2023-05-22T11:32:59.213Z,185.62
2023-05-22T11:33:59.109Z,168.75
2023-05-22T11:34:59.093Z,168.75
2023-05-22T11:35:59.087Z,163.12
2023-05-22T11:36:59.106Z,174.38
2023-05-22T11:37:59.064Z,151.88
2023-05-22T11:38:59.189Z,163.12
2023-05-22T11:39:59.049Z,168.75
2023-05-22T11:40:59.039Z,196.88
2023-05-22T11:41:59.036Z,174.38
2023-05-22T11:42:59.032Z,163.12
2023-05-22T11:43:59.007Z,180.00
2023-05-22T11:44:59.000Z,213.75
2023-05-22T11:45:58.982Z,191.25
2023-05-22T11:46:58.976Z,185.62
2023-05-22T11:47:58.996Z,196.88
2023-05-22T11:48:58.955Z,180.00
2023-05-22T11:49:58.921Z,180.00
2023-05-22T11:50:59.053Z,196.88
2023-05-22T11:51:58.926Z,151.88
2023-05-22T11:52:58.910Z,140.62
2023-05-22T11:53:58.922Z,151.88
2023-05-22T11:54:58.916Z,146.25
2023-05-22T11:55:58.914Z,157.50
2023-05-22T11:56:58.879Z,163.12
2023-05-22T11:57:58.839Z,180.00
2023-05-22T11:58:58.817Z,151.88
2023-05-22T11:59:58.845Z,185.62
2023-05-22T12:00:58.823Z,174.38
2023-05-22T12:01:58.813Z,168.75
2023-05-22T12:02:58.999Z,208.12
2023-05-22T12:03:58.817Z,202.50
2023-05-22T12:04:58.761Z,191.25
2023-05-22T12:05:58.774Z,168.75
2023-05-22T12:06:58.810Z,174.38
2023-05-22T12:07:58.782Z,225.00
2023-05-22T12:08:58.701Z,213.75
2023-05-22T12:09:58.703Z,202.50
2023-05-22T12:10:58.815Z,174.38
2023-05-22T12:11:58.718Z,157.50
2023-05-22T12:12:58.710Z,163.12
2023-05-22T12:13:58.662Z,219.38
2023-05-22T12:14:58.658Z,185.62
2023-05-22T12:15:58.652Z,163.12
2023-05-22T12:16:58.779Z,140.62
2023-05-22T12:17:58.657Z,140.62
2023-05-22T12:18:58.643Z,151.88
2023-05-22T12:19:58.648Z,185.62
2023-05-22T12:20:58.573Z,174.38
2023-05-22T12:21:58.577Z,180.00
2023-05-22T12:22:58.592Z,191.25
2023-05-22T12:23:58.562Z,168.75
2023-05-22T12:24:58.615Z,168.75
2023-05-22T12:25:58.552Z,180.00
2023-05-22T12:26:58.640Z,180.00
2023-05-22T12:27:58.610Z,191.25
2023-05-22T12:28:58.490Z,135.00
2023-05-22T12:29:58.525Z,140.62
2023-05-22T12:30:58.464Z,163.12
2023-05-22T12:31:58.474Z,151.88
2023-05-22T12:32:58.589Z,151.88
2023-05-22T12:33:58.460Z,151.88
2023-05-22T12:34:58.437Z,151.88
2023-05-22T12:35:58.454Z,140.62
2023-05-22T12:36:58.401Z,140.62
2023-05-22T12:37:58.401Z,146.25
2023-05-22T12:38:58.390Z,146.25
2023-05-22T12:39:58.383Z,140.62
2023-05-22T12:40:58.363Z,146.25
2023-05-22T12:41:58.358Z,146.25
2023-05-22T12:42:58.511Z,140.62
2023-05-22T12:43:58.339Z,146.25
2023-05-22T12:44:58.374Z,140.62
2023-05-22T12:45:59.806Z,140.62
2023-05-22T12:46:58.305Z,140.62
2023-05-22T12:47:58.416Z,140.62
2023-05-22T12:48:58.284Z,135.00